Waterford, Connecticut
Current Conditions -  °F | °C
As of 12:39 AM on Tuesday 27 Jan 2015 (Local Time) from KGON Reporting Station
Moderate Fog Moderate Fog  
Wind Chill:   Ceiling: 800
Heat Index: 21°   Visibility: 0.5mi
Dew Point: 19°   Wind: 22mph
Humidity: 92%   Direction: 10°N
Pressure: 29.58"   Gusts: 33mph
Location:  41.33°N, 72.12°W
Report Text: KGON 270539Z AUTO 01019G29KT 1/2SM R05/3000V4000FT FZFG VV008 M06/M07 A2958 RMK AO2 SNEMM P0000 T10611072 PWINO FZRANO $
Loading
Personal Weather Stations






























Interactive Weather Map New forecast layout! Learn more

10-Day Weather Forecast

Advertisements
Track Severe Weather on mobile